createdAt,value
2024-03-05T00:01:39.169Z,95856.69
2024-03-05T00:04:07.436Z,95854.41
2024-03-05T00:06:34.866Z,95850.22
2024-03-05T00:09:01.981Z,95850.91
2024-03-05T00:11:29.264Z,95857.22
2024-03-05T00:13:56.382Z,95842.56
2024-03-05T00:16:23.538Z,95852.78
2024-03-05T00:18:50.710Z,95858.69
2024-03-05T00:21:17.832Z,95858.69
2024-03-05T00:23:44.984Z,95856.78
2024-03-05T00:26:20.005Z,95862.72
2024-03-05T00:28:47.132Z,95862.72
2024-03-05T00:31:14.664Z,95866.22
2024-03-05T00:33:41.877Z,95865.13
2024-03-05T00:36:09.609Z,95867.81
2024-03-05T00:38:36.780Z,95871.19
2024-03-05T00:41:04.131Z,95875.75
2024-03-05T00:43:31.412Z,95875.75
2024-03-05T00:45:58.579Z,95878.84
2024-03-05T00:48:26.051Z,95875.88
2024-03-05T00:50:53.410Z,95869.19
2024-03-05T00:53:20.480Z,95873.63
2024-03-05T00:55:48.101Z,95872.94
2024-03-05T00:58:15.248Z,95878.84
2024-03-05T01:00:44.904Z,95870.25
2024-03-05T01:03:14.978Z,95870.53
2024-03-05T01:05:42.111Z,95872.16
2024-03-05T01:08:09.211Z,95877.13
2024-03-05T01:10:36.461Z,95883.69
2024-03-05T01:13:03.927Z,95878.59
2024-03-05T01:15:30.995Z,95875.63
2024-03-05T01:17:59.222Z,95875.63
2024-03-05T01:20:26.522Z,95882.78
2024-03-05T01:22:53.627Z,95880.34
2024-03-05T01:25:21.035Z,95880.50
2024-03-05T01:27:48.257Z,95874.31
2024-03-05T01:30:15.932Z,95875.63
2024-03-05T01:32:45.484Z,95877.91
2024-03-05T01:35:12.904Z,95874.56
2024-03-05T01:37:41.978Z,95877.63
2024-03-05T01:40:12.911Z,95876.03
2024-03-05T01:42:40.061Z,95879.41
2024-03-05T01:45:08.118Z,95879.41
2024-03-05T01:47:35.630Z,95879.91
2024-03-05T01:50:05.382Z,95883.13
2024-03-05T01:52:33.744Z,95882.97
2024-03-05T01:55:08.060Z,95882.03
2024-03-05T01:57:36.244Z,95881.25
2024-03-05T02:00:03.944Z,95878.97
2024-03-05T02:02:31.978Z,95880.72
2024-03-05T02:05:00.004Z,95876.69
2024-03-05T02:07:27.190Z,95883.38
2024-03-05T02:09:55.726Z,95887.56
2024-03-05T02:12:23.768Z,95877.63
2024-03-05T02:14:51.100Z,95883.94
2024-03-05T02:17:19.185Z,95881.41
2024-03-05T02:19:52.513Z,95888.13
2024-03-05T02:22:19.895Z,95888.78
2024-03-05T02:24:46.938Z,95883.16
2024-03-05T02:27:20.430Z,95892.69
2024-03-05T02:29:53.848Z,95886.66
2024-03-05T02:32:21.100Z,95889.88
2024-03-05T02:34:48.295Z,95895.47
2024-03-05T02:37:15.544Z,95896.16
2024-03-05T02:39:42.606Z,95895.63
2024-03-05T02:42:09.697Z,95895.22
2024-03-05T02:44:36.869Z,95888.66
2024-03-05T02:47:04.563Z,95894.72
2024-03-05T02:49:31.789Z,95889.34
2024-03-05T02:51:58.956Z,95894.16
2024-03-05T02:54:26.019Z,95892.28
2024-03-05T02:56:53.102Z,95894.81
2024-03-05T02:59:20.201Z,95899.00
2024-03-05T03:01:48.570Z,95898.19
2024-03-05T03:04:16.803Z,95893.91
2024-03-05T03:06:44.712Z,95894.72
2024-03-05T03:09:11.779Z,95899.00
2024-03-05T03:11:43.068Z,95909.19
2024-03-05T03:14:10.738Z,95909.19
2024-03-05T03:16:37.881Z,95911.75
2024-03-05T03:19:06.196Z,95912.56
2024-03-05T03:21:33.630Z,95911.09
2024-03-05T03:24:00.901Z,95909.06
2024-03-05T03:26:28.265Z,95916.72
2024-03-05T03:28:56.267Z,95910.53
2024-03-05T03:31:24.192Z,95917.28
2024-03-05T03:33:51.375Z,95914.44
2024-03-05T03:36:25.851Z,95919.25
2024-03-05T03:38:53.671Z,95927.72
2024-03-05T03:41:21.179Z,95922.63
2024-03-05T03:43:48.942Z,95932.16
2024-03-05T03:46:16.367Z,95929.88
2024-03-05T03:48:43.558Z,95929.22
2024-03-05T03:51:11.002Z,95934.97
2024-03-05T03:53:38.626Z,95941.72
2024-03-05T03:56:06.345Z,95946.00
2024-03-05T03:58:34.105Z,95944.94
2024-03-05T04:01:01.267Z,95947.63
2024-03-05T04:03:28.446Z,95941.72
2024-03-05T04:05:56.022Z,95945.75
2024-03-05T04:08:23.244Z,95943.84
2024-03-05T04:10:50.522Z,95945.75
2024-03-05T04:13:19.245Z,95949.25
2024-03-05T04:15:46.425Z,95957.97
2024-03-05T04:18:13.479Z,95958.78
2024-03-05T04:20:42.285Z,95959.44
2024-03-05T04:23:10.846Z,95963.44
2024-03-05T04:25:41.654Z,95965.88
2024-03-05T04:28:14.359Z,95957.94
2024-03-05T04:30:43.621Z,95964.41
2024-03-05T04:33:11.039Z,95963.44
2024-03-05T04:35:39.372Z,95965.47
2024-03-05T04:38:09.015Z,95968.97
2024-03-05T04:40:37.202Z,95973.94
2024-03-05T04:43:04.880Z,95972.84
2024-03-05T04:45:33.641Z,95972.31
2024-03-05T04:48:01.070Z,95975.53
2024-03-05T04:50:28.226Z,95969.47
2024-03-05T04:52:55.487Z,95977.28
2024-03-05T04:55:24.006Z,95977.94
2024-03-05T04:57:51.325Z,95976.88
2024-03-05T05:00:22.100Z,95972.19
2024-03-05T05:02:53.562Z,95968.97
2024-03-05T05:05:23.032Z,95969.88
2024-03-05T05:07:50.243Z,95974.47
2024-03-05T05:10:18.102Z,95970.28
2024-03-05T05:12:46.748Z,95974.47
2024-03-05T05:15:14.409Z,95976.22
2024-03-05T05:17:42.516Z,95978.09
2024-03-05T05:20:10.763Z,95985.59
2024-03-05T05:22:39.651Z,95990.69
2024-03-05T05:25:08.293Z,95981.47
2024-03-05T05:27:38.159Z,95983.34
2024-03-05T05:30:12.984Z,95972.72
2024-03-05T05:32:41.596Z,95975.94
2024-03-05T05:35:10.101Z,95974.06
2024-03-05T05:37:40.678Z,95979.31
2024-03-05T05:40:12.897Z,95980.38
2024-03-05T05:42:41.582Z,95983.75
2024-03-05T05:45:12.668Z,95988.84
2024-03-05T05:47:50.808Z,95993.13
2024-03-05T05:50:20.091Z,95998.25
2024-03-05T05:52:54.697Z,95994.34
2024-03-05T05:55:26.992Z,95989.25
2024-03-05T05:57:56.983Z,95994.34
2024-03-05T06:00:35.028Z,96004.41
2024-03-05T06:03:06.090Z,95997.44
2024-03-05T06:05:33.669Z,95997.72
2024-03-05T06:08:02.015Z,95993.28
2024-03-05T06:10:31.137Z,95997.56
2024-03-05T06:12:59.911Z,96003.19
2024-03-05T06:15:30.018Z,96002.28
2024-03-05T06:17:59.661Z,96007.22
2024-03-05T06:20:30.481Z,96000.25
2024-03-05T06:22:58.672Z,96008.19
2024-03-05T06:25:25.899Z,96015.03
2024-03-05T06:27:54.013Z,96017.56
2024-03-05T06:30:21.217Z,96014.22
2024-03-05T06:32:53.640Z,96017.44
2024-03-05T06:35:25.633Z,96023.50
2024-03-05T06:37:55.306Z,96023.19
2024-03-05T06:40:25.169Z,96026.72
2024-03-05T06:42:54.269Z,96030.84
2024-03-05T06:45:31.253Z,96033.28
2024-03-05T06:50:35.953Z,96031.81
2024-03-05T06:53:21.318Z,96033.56
2024-03-05T06:56:07.014Z,96034.34
2024-03-05T06:58:36.695Z,96045.63
2024-03-05T07:01:05.236Z,96044.56
2024-03-05T07:03:33.357Z,96048.59
2024-03-05T07:06:00.452Z,96041.22
2024-03-05T07:08:28.939Z,96042.69
2024-03-05T07:10:56.213Z,96044.03
2024-03-05T07:13:23.364Z,96052.50
2024-03-05T07:15:52.602Z,96058.53
2024-03-05T07:18:19.700Z,96059.34
2024-03-05T07:20:47.642Z,96056.22
2024-03-05T07:23:14.903Z,96050.88
2024-03-05T07:25:42.085Z,96056.91
2024-03-05T07:28:11.920Z,96061.47
2024-03-05T07:30:44.128Z,96059.75
2024-03-05T07:33:11.289Z,96057.44
2024-03-05T07:35:38.535Z,96067.66
2024-03-05T07:38:09.066Z,96070.63
2024-03-05T07:40:37.402Z,96073.69
2024-03-05T07:43:05.933Z,96067.66
2024-03-05T07:45:34.927Z,96073.44
2024-03-05T07:48:03.083Z,96075.47
2024-03-05T07:50:31.121Z,96075.72
2024-03-05T07:53:01.109Z,96082.56
2024-03-05T07:55:32.131Z,96078.94
2024-03-05T07:58:03.159Z,96074.09
2024-03-05T08:00:30.274Z,96075.47
2024-03-05T08:02:57.422Z,96075.19
2024-03-05T08:05:24.960Z,96079.88
2024-03-05T08:07:55.041Z,96084.44
2024-03-05T08:10:24.101Z,96087.69
2024-03-05T08:12:55.768Z,96079.06
2024-03-05T08:15:28.009Z,96084.72
2024-03-05T08:17:58.223Z,96084.72
2024-03-05T08:20:28.451Z,96083.63
2024-03-05T08:22:57.688Z,96083.91
2024-03-05T08:25:25.919Z,96091.97
2024-03-05T08:27:56.846Z,96090.88
2024-03-05T08:30:27.624Z,96088.88
2024-03-05T08:32:57.312Z,96092.38
2024-03-05T08:35:27.209Z,96098.13
2024-03-05T08:37:54.719Z,96100.59
2024-03-05T08:40:23.052Z,96099.22
2024-03-05T08:42:52.940Z,96102.16
2024-03-05T08:45:21.751Z,96102.06
2024-03-05T08:47:51.718Z,96097.75
2024-03-05T08:50:19.992Z,96096.41
2024-03-05T08:52:48.262Z,96107.00
2024-03-05T08:55:17.073Z,96106.63
2024-03-05T08:57:45.446Z,96103.38
2024-03-05T09:02:49.002Z,96108.91
2024-03-05T09:05:16.216Z,96112.38
2024-03-05T09:07:44.932Z,96111.19
2024-03-05T09:10:12.341Z,96101.25
2024-03-05T09:12:39.374Z,96111.59
2024-03-05T09:15:07.722Z,96112.28
2024-03-05T09:17:37.955Z,96119.38
2024-03-05T09:20:15.569Z,96109.06
2024-03-05T09:22:46.457Z,96122.75
2024-03-05T09:25:16.005Z,96116.56
2024-03-05T09:27:46.712Z,96128.25
2024-03-05T09:30:19.927Z,96137.25
2024-03-05T09:32:48.253Z,96136.72
2024-03-05T09:35:17.200Z,96125.56
2024-03-05T09:37:50.448Z,96143.03
2024-03-05T09:40:22.354Z,96145.06
2024-03-05T09:42:49.764Z,96141.94
2024-03-05T09:45:19.675Z,96141.00
2024-03-05T09:47:51.234Z,96141.53
2024-03-05T09:50:19.204Z,96146.91
2024-03-05T09:52:48.739Z,96152.28
2024-03-05T09:55:19.295Z,96141.00
2024-03-05T09:57:50.527Z,96146.94
2024-03-05T10:00:19.945Z,96137.13
2024-03-05T10:02:50.114Z,96140.47
2024-03-05T10:05:18.180Z,96141.84
2024-03-05T10:07:50.195Z,96142.88
2024-03-05T10:10:22.115Z,96144.09
2024-03-05T10:12:51.988Z,96143.16
2024-03-05T10:15:27.186Z,96143.56
2024-03-05T10:17:56.938Z,96142.63
2024-03-05T10:20:39.845Z,96151.06
2024-03-05T10:23:11.141Z,96151.06
2024-03-05T10:25:38.705Z,96146.06
2024-03-05T10:28:10.331Z,96146.47
2024-03-05T10:30:39.395Z,96146.88
2024-03-05T10:33:11.981Z,96153.06
2024-03-05T10:35:42.141Z,96151.25
2024-03-05T10:38:13.756Z,96149.22
2024-03-05T10:40:46.460Z,96148.94
2024-03-05T10:43:20.177Z,96147.72
2024-03-05T10:45:49.053Z,96151.66
2024-03-05T10:48:22.217Z,96147.38
2024-03-05T10:50:55.298Z,96148.13
2024-03-05T10:53:22.448Z,96147.72
2024-03-05T10:55:54.648Z,96146.34
2024-03-05T10:58:41.914Z,96154.19
2024-03-05T11:01:11.753Z,96142.19
2024-03-05T11:03:41.197Z,96150.91
2024-03-05T11:06:10.720Z,96142.91
2024-03-05T11:08:38.713Z,96149.56
2024-03-05T11:11:13.376Z,96152.50
2024-03-05T11:13:42.960Z,96138.13
2024-03-05T11:16:10.628Z,96132.94
2024-03-05T11:18:39.799Z,96135.16
2024-03-05T11:21:13.115Z,96131.34
2024-03-05T11:23:52.918Z,96113.06
2024-03-05T11:26:25.731Z,96126.63
2024-03-05T11:29:18.366Z,96127.97
2024-03-05T11:31:49.057Z,96128.38
2024-03-05T11:34:19.299Z,96127.66
2024-03-05T11:36:46.827Z,96129.66
2024-03-05T11:39:21.351Z,96128.31
2024-03-05T11:41:49.731Z,96135.28
2024-03-05T11:44:36.923Z,96126.63
2024-03-05T11:47:04.885Z,96129.56
2024-03-05T11:49:32.842Z,96130.09
2024-03-05T11:52:00.760Z,96127.69
2024-03-05T11:54:27.907Z,96128.38
2024-03-05T11:57:02.513Z,96121.47
2024-03-05T11:59:40.987Z,96118.31
2024-03-05T12:02:13.428Z,96130.94
2024-03-05T12:04:41.935Z,96129.53
2024-03-05T12:07:14.484Z,96121.94
2024-03-05T12:09:42.380Z,96121.81
2024-03-05T12:12:15.737Z,96123.44
2024-03-05T12:14:56.613Z,96125.13
2024-03-05T12:17:26.290Z,96126.44
2024-03-05T12:20:05.124Z,96123.66
2024-03-05T12:22:32.349Z,96129.81
2024-03-05T12:24:59.569Z,96130.53
2024-03-05T12:27:27.210Z,96128.19
2024-03-05T12:29:54.531Z,96125.94
2024-03-05T12:32:21.857Z,96116.63
2024-03-05T12:34:49.696Z,96119.13
2024-03-05T12:37:21.890Z,96110.53
2024-03-05T12:40:08.752Z,96107.91
2024-03-05T12:42:36.096Z,96113.00
2024-03-05T12:45:09.236Z,96116.69
2024-03-05T12:47:38.384Z,96110.22
2024-03-05T12:50:09.421Z,96111.13
2024-03-05T12:52:37.861Z,96108.38
2024-03-05T12:55:11.611Z,96114.56
2024-03-05T12:57:39.534Z,96108.38
2024-03-05T13:00:14.706Z,96115.28
2024-03-05T13:02:43.383Z,96107.06
2024-03-05T13:05:11.314Z,96113.38
2024-03-05T13:07:39.837Z,96106.69
2024-03-05T13:10:12.324Z,96120.47
2024-03-05T13:12:40.781Z,96115.53
2024-03-05T13:15:08.601Z,96110.94
2024-03-05T13:17:35.941Z,96105.75
2024-03-05T13:20:06.190Z,96107.31
2024-03-05T13:22:34.077Z,96108.03
2024-03-05T13:25:01.503Z,96108.56
2024-03-05T13:27:28.857Z,96106.94
2024-03-05T13:30:05.681Z,96107.25
2024-03-05T13:32:39.765Z,96104.59
2024-03-05T13:35:08.678Z,96103.94
2024-03-05T13:37:39.505Z,96105.25
2024-03-05T13:40:08.807Z,96104.66
2024-03-05T13:42:37.738Z,96113.38
2024-03-05T13:45:13.924Z,96113.16
2024-03-05T13:47:41.559Z,96106.91
2024-03-05T13:50:15.018Z,96098.94
2024-03-05T13:52:45.193Z,96110.84
2024-03-05T13:55:15.645Z,96102.25
2024-03-05T13:57:43.654Z,96098.34
2024-03-05T14:00:21.608Z,96100.28
2024-03-05T14:02:50.118Z,96099.38
2024-03-05T14:05:17.781Z,96097.06
2024-03-05T14:07:45.958Z,96086.88
2024-03-05T14:10:13.491Z,96085.63
2024-03-05T14:12:41.907Z,96087.88
2024-03-05T14:15:11.763Z,96093.50
2024-03-05T14:17:38.821Z,96096.34
2024-03-05T14:20:07.972Z,96093.31
2024-03-05T14:22:39.844Z,96091.25
2024-03-05T14:25:08.560Z,96092.38
2024-03-05T14:27:36.392Z,96084.72
2024-03-05T14:30:04.230Z,96092.59
2024-03-05T14:32:32.480Z,96088.41
2024-03-05T14:35:00.494Z,96092.13
2024-03-05T14:37:27.722Z,96085.84
2024-03-05T14:39:54.836Z,96095.53
2024-03-05T14:42:22.381Z,96089.09
2024-03-05T14:44:49.652Z,96091.97
2024-03-05T14:47:16.678Z,96090.28
2024-03-05T14:49:43.935Z,96095.34
2024-03-05T14:52:11.110Z,96095.97
2024-03-05T14:54:38.236Z,96097.53
2024-03-05T14:57:05.908Z,96096.66
2024-03-05T14:59:32.980Z,96101.97
2024-03-05T15:02:00.145Z,96094.03
2024-03-05T15:04:27.924Z,96090.50
2024-03-05T15:06:57.897Z,96100.47
2024-03-05T15:09:25.057Z,96091.16
2024-03-05T15:11:52.281Z,96091.16
2024-03-05T15:14:19.336Z,96085.47
2024-03-05T15:16:46.505Z,96081.75
2024-03-05T15:19:16.524Z,96084.97
2024-03-05T15:21:43.773Z,96086.16
2024-03-05T15:24:12.181Z,96080.00
2024-03-05T15:26:45.110Z,96085.81
2024-03-05T15:29:20.950Z,96084.09
2024-03-05T15:31:48.056Z,96091.19
2024-03-05T15:34:15.381Z,96094.81
2024-03-05T15:36:43.496Z,96092.25
2024-03-05T15:39:10.676Z,96092.97
2024-03-05T15:41:40.556Z,96091.00
2024-03-05T15:44:07.903Z,96092.53
2024-03-05T15:46:35.045Z,96101.97
2024-03-05T15:49:02.139Z,96101.97
2024-03-05T15:51:29.245Z,96098.28
2024-03-05T15:53:56.609Z,96110.63
2024-03-05T15:56:36.350Z,96110.63
2024-03-05T15:59:22.938Z,96103.41
2024-03-05T16:01:50.060Z,96106.28
2024-03-05T16:04:39.258Z,96101.59
2024-03-05T16:07:05.373Z,96115.16
2024-03-05T16:09:33.533Z,96115.16
2024-03-05T16:12:00.802Z,96113.63
2024-03-05T16:14:28.538Z,96112.03
2024-03-05T16:16:55.718Z,96119.72
2024-03-05T16:19:22.852Z,96119.72
2024-03-05T16:21:51.323Z,96129.53
2024-03-05T16:24:18.521Z,96129.53
2024-03-05T16:26:46.066Z,96124.19
2024-03-05T16:29:13.163Z,96130.41
2024-03-05T16:31:40.347Z,96124.75
2024-03-05T16:34:08.847Z,96126.13
2024-03-05T16:36:36.017Z,96125.59
2024-03-05T16:39:03.143Z,96122.09
2024-03-05T16:41:30.265Z,96124.53
2024-03-05T16:43:57.930Z,96126.53
2024-03-05T16:46:25.496Z,96132.06
2024-03-05T16:48:52.644Z,96140.13
2024-03-05T16:51:19.829Z,96142.31
2024-03-05T16:53:46.903Z,96139.09
2024-03-05T16:56:14.069Z,96143.91
2024-03-05T16:58:41.228Z,96139.88
2024-03-05T17:01:09.976Z,96142.59
2024-03-05T17:03:37.524Z,96138.16
2024-03-05T17:06:09.369Z,96138.16
2024-03-05T17:08:36.447Z,96136.00
2024-03-05T17:11:10.832Z,96139.22
2024-03-05T17:13:42.960Z,96141.66
2024-03-05T17:16:12.883Z,96138.56
2024-03-05T17:18:40.246Z,96141.00
2024-03-05T17:21:08.677Z,96141.00
2024-03-05T17:23:42.596Z,96152.97
2024-03-05T17:26:13.481Z,96168.03
2024-03-05T17:28:42.575Z,96167.78
2024-03-05T17:31:10.117Z,96167.78
2024-03-05T17:33:37.263Z,96179.72
2024-03-05T17:36:04.872Z,96181.88
2024-03-05T17:38:33.286Z,96181.88
2024-03-05T17:41:01.911Z,96193.31
2024-03-05T17:43:29.729Z,96191.03
2024-03-05T17:45:57.215Z,96196.66
2024-03-05T17:48:24.359Z,96207.28
2024-03-05T17:50:51.599Z,96197.06
2024-03-05T17:53:18.787Z,96197.06
2024-03-05T17:55:46.435Z,96189.41
2024-03-05T17:58:13.816Z,96200.16
2024-03-05T18:00:46.646Z,96198.81
2024-03-05T18:03:22.847Z,96197.44
2024-03-05T18:05:50.243Z,96204.72
2024-03-05T18:08:17.640Z,96210.31
2024-03-05T18:10:45.108Z,96208.72
2024-03-05T18:13:13.646Z,96210.59
2024-03-05T18:15:41.626Z,96208.31
2024-03-05T18:18:08.787Z,96207.38
2024-03-05T18:20:36.792Z,96208.97
2024-03-05T18:23:06.578Z,96204.53
2024-03-05T18:25:37.536Z,96213.94
2024-03-05T18:28:06.893Z,96207.09
2024-03-05T18:30:36.977Z,96214.06
2024-03-05T18:33:09.637Z,96214.22
2024-03-05T18:35:38.468Z,96215.97
2024-03-05T18:38:16.420Z,96218.50
2024-03-05T18:40:51.741Z,96219.44
2024-03-05T18:43:22.878Z,96219.44
2024-03-05T18:45:51.354Z,96217.84
2024-03-05T18:48:19.128Z,96219.03
2024-03-05T18:50:47.301Z,96221.59
2024-03-05T18:53:14.987Z,96225.06
2024-03-05T18:55:42.523Z,96227.75
2024-03-05T18:58:10.065Z,96217.38
2024-03-05T19:00:38.412Z,96222.47
2024-03-05T19:03:06.863Z,96215.53
2024-03-05T19:05:35.309Z,96220.63
2024-03-05T19:08:03.054Z,96231.91
2024-03-05T19:10:31.872Z,96230.28
2024-03-05T19:13:00.186Z,96234.03
2024-03-05T19:15:29.603Z,96227.28
2024-03-05T19:17:58.872Z,96230.91
2024-03-05T19:20:27.327Z,96230.91
2024-03-05T19:22:54.964Z,96227.81
2024-03-05T19:25:23.816Z,96231.44
2024-03-05T19:27:51.088Z,96227.16
2024-03-05T19:30:18.734Z,96227.28
2024-03-05T19:32:47.591Z,96234.94
2024-03-05T19:35:18.388Z,96233.44
2024-03-05T19:37:51.276Z,96233.25
2024-03-05T19:40:19.162Z,96234.06
2024-03-05T19:42:55.070Z,96241.72
2024-03-05T19:45:22.855Z,96238.13
2024-03-05T19:47:50.291Z,96243.34
2024-03-05T19:50:19.302Z,96245.91
2024-03-05T19:52:49.614Z,96241.88
2024-03-05T19:55:17.362Z,96241.19
2024-03-05T19:57:45.472Z,96245.47
2024-03-05T20:00:18.722Z,96235.41
2024-03-05T20:02:49.112Z,96238.88
2024-03-05T20:05:21.049Z,96248.94
2024-03-05T20:07:49.197Z,96248.25
2024-03-05T20:10:16.695Z,96245.59
2024-03-05T20:12:45.169Z,96238.06
2024-03-05T20:15:13.659Z,96237.25
2024-03-05T20:17:42.009Z,96234.97
2024-03-05T20:20:11.033Z,96236.72
2024-03-05T20:22:39.583Z,96238.72
2024-03-05T20:25:08.349Z,96234.53
2024-03-05T20:27:35.824Z,96233.88
2024-03-05T20:30:05.595Z,96234.00
2024-03-05T20:32:32.750Z,96230.78
2024-03-05T20:35:01.009Z,96223.22
2024-03-05T20:37:30.956Z,96224.56
2024-03-05T20:39:59.426Z,96224.81
2024-03-05T20:42:26.579Z,96218.22
2024-03-05T20:44:53.720Z,96216.84
2024-03-05T20:47:20.861Z,96216.16
2024-03-05T20:49:47.974Z,96212.25
2024-03-05T20:52:15.116Z,96212.13
2024-03-05T20:54:42.190Z,96205.78
2024-03-05T20:57:09.309Z,96200.38
2024-03-05T20:59:36.409Z,96200.75
2024-03-05T21:02:11.360Z,96198.72
2024-03-05T21:04:39.808Z,96203.63
2024-03-05T21:07:07.085Z,96203.19
2024-03-05T21:09:35.604Z,96203.69
2024-03-05T21:12:03.045Z,96199.03
2024-03-05T21:14:30.150Z,96211.38
2024-03-05T21:16:57.307Z,96216.91
2024-03-05T21:19:27.861Z,96216.91
2024-03-05T21:21:55.159Z,96215.19
2024-03-05T21:24:24.648Z,96226.88
2024-03-05T21:29:21.777Z,96230.91
2024-03-05T21:31:48.907Z,96235.88
2024-03-05T21:34:16.048Z,96234.69
2024-03-05T21:36:43.235Z,96241.41
2024-03-05T21:39:10.484Z,96247.72
2024-03-05T21:41:37.797Z,96255.59
2024-03-05T21:44:05.766Z,96252.53
2024-03-05T21:46:32.980Z,96254.16
2024-03-05T21:49:01.232Z,96259.81
2024-03-05T21:51:31.478Z,96257.50
2024-03-05T21:53:58.865Z,96257.88
2024-03-05T21:56:25.967Z,96263.41
2024-03-05T21:58:53.165Z,96266.78
2024-03-05T22:01:21.760Z,96266.69
2024-03-05T22:03:49.555Z,96268.56
2024-03-05T22:06:23.692Z,96271.69
2024-03-05T22:08:52.369Z,96267.59
2024-03-05T22:11:19.648Z,96275.78
2024-03-05T22:13:46.936Z,96275.41
2024-03-05T22:16:13.993Z,96271.13
2024-03-05T22:18:41.080Z,96271.13
2024-03-05T22:21:08.247Z,96260.00
2024-03-05T22:23:35.375Z,96269.75
2024-03-05T22:26:02.547Z,96264.28
2024-03-05T22:28:31.654Z,96258.72
2024-03-05T22:30:59.697Z,96258.28
2024-03-05T22:33:26.889Z,96260.50
2024-03-05T22:35:53.949Z,96260.16
2024-03-05T22:38:22.236Z,96259.69
2024-03-05T22:40:49.401Z,96260.47
2024-03-05T22:43:16.591Z,96259.91
2024-03-05T22:45:43.852Z,96256.38
2024-03-05T22:48:11.219Z,96260.06
2024-03-05T22:50:38.357Z,96255.44
2024-03-05T22:53:05.694Z,96262.59
2024-03-05T22:55:33.316Z,96257.75
2024-03-05T22:58:00.819Z,96257.19
2024-03-05T23:00:36.636Z,96260.66
2024-03-05T23:03:04.897Z,96266.56
2024-03-05T23:05:32.726Z,96269.09
2024-03-05T23:08:01.197Z,96268.16
2024-03-05T23:10:30.082Z,96276.47
2024-03-05T23:12:57.921Z,96273.16
2024-03-05T23:15:28.968Z,96275.00
2024-03-05T23:17:56.409Z,96271.78
2024-03-05T23:20:23.603Z,96273.72
2024-03-05T23:22:51.107Z,96275.44
2024-03-05T23:25:18.607Z,96265.94
2024-03-05T23:27:47.552Z,96274.41
2024-03-05T23:30:18.215Z,96273.16
2024-03-05T23:32:47.462Z,96269.00
2024-03-05T23:35:16.141Z,96267.50
2024-03-05T23:37:43.412Z,96261.59
2024-03-05T23:40:11.311Z,96271.72
2024-03-05T23:42:39.796Z,96277.47
2024-03-05T23:45:08.338Z,96275.25
2024-03-05T23:47:35.790Z,96277.94
2024-03-05T23:50:03.947Z,96277.13
2024-03-05T23:52:31.336Z,96279.91
2024-03-05T23:55:01.285Z,96274.13
2024-03-05T23:57:29.925Z,96272.38
2024-03-05T23:59:57.384Z,96273.22
